createdAt,value
2019-04-03T07:28:58.582Z,18.30
2019-04-03T07:38:57.928Z,18.36
2019-04-03T07:48:55.409Z,18.39
2019-04-03T07:58:55.299Z,18.40
2019-04-03T08:09:06.686Z,18.42
2019-04-03T08:18:55.227Z,18.41
2019-04-03T08:28:55.281Z,18.41
2019-04-03T08:38:58.173Z,18.43
2019-04-03T08:48:55.814Z,18.53
2019-04-03T08:58:57.329Z,18.67
2019-04-03T09:08:57.267Z,18.79
2019-04-03T09:18:55.230Z,18.90
2019-04-03T09:28:55.497Z,18.97
2019-04-03T12:02:04.264Z,18.66
2019-04-03T12:12:10.667Z,18.71
2019-04-03T12:22:04.167Z,18.76
2019-04-03T12:32:04.084Z,18.74
2019-04-03T12:42:03.974Z,18.74
2019-04-03T12:52:05.075Z,18.71
2019-04-03T13:02:04.004Z,18.69
2019-04-03T13:12:04.031Z,18.68
2019-04-03T13:22:03.946Z,18.64
2019-04-03T13:32:04.215Z,18.63
2019-04-03T13:42:04.072Z,18.62
2019-04-03T13:52:07.669Z,18.61
2019-04-03T14:02:04.284Z,18.58
2019-04-03T14:12:05.723Z,18.57
2019-04-03T14:22:04.475Z,18.57
2019-04-03T14:32:09.594Z,18.55
2019-04-03T14:42:08.671Z,18.52
2019-04-03T14:52:09.705Z,18.56
2019-04-03T15:02:09.712Z,18.68
2019-04-03T15:12:07.485Z,18.76
2019-04-03T15:22:04.454Z,18.76
2019-04-03T15:32:04.036Z,18.73
2019-04-03T15:42:06.484Z,18.71
2019-04-03T15:52:04.054Z,18.68
2019-04-03T16:02:04.037Z,18.65
2019-04-03T16:12:05.228Z,18.63
2019-04-03T16:22:04.060Z,18.60
2019-04-03T16:32:04.107Z,18.58
2019-04-03T16:42:04.802Z,18.55
2019-04-03T16:52:05.609Z,18.54
2019-04-03T17:02:04.013Z,18.52
2019-04-03T17:12:04.209Z,18.50
2019-04-03T17:22:06.701Z,18.47
2019-04-03T17:32:07.802Z,18.46
2019-04-03T17:42:04.101Z,18.45
2019-04-03T17:52:05.086Z,18.43
2019-04-03T18:02:04.011Z,18.41
2019-04-03T18:12:04.198Z,18.41
2019-04-03T18:22:08.471Z,18.51
